MetarQuiz.com

1 / 10

EGLL 260350Z 29020G30KT 10SM FEW030 06/02 Q1005 NOSIG=